createdAt,value
2022-11-23T00:01:30.901Z,9.88
2022-11-23T00:04:03.024Z,9.86
2022-11-23T00:06:30.968Z,9.86
2022-11-23T00:08:58.436Z,9.85
2022-11-23T00:11:27.613Z,10.08
2022-11-23T00:13:56.168Z,9.91
2022-11-23T00:16:30.384Z,9.88
2022-11-23T00:19:00.153Z,9.95
2022-11-23T00:21:31.669Z,9.97
2022-11-23T00:23:59.392Z,9.98
2022-11-23T00:26:27.025Z,9.95
2022-11-23T00:28:54.207Z,9.93
2022-11-23T00:31:21.644Z,9.98
2022-11-23T00:33:53.195Z,10.02
2022-11-23T00:36:21.556Z,10.01
2022-11-23T00:38:49.821Z,10.03
2022-11-23T00:41:24.783Z,10.04
2022-11-23T00:43:52.166Z,10.02
2022-11-23T00:46:20.595Z,9.99
2022-11-23T00:48:50.880Z,9.97
2022-11-23T00:51:21.671Z,10.08
2022-11-23T00:53:51.543Z,10.09
2022-11-23T00:56:19.740Z,10.10
2022-11-23T00:58:51.466Z,10.11
2022-11-23T01:01:21.628Z,10.11
2022-11-23T01:03:55.414Z,10.13
2022-11-23T01:06:31.737Z,10.12
2022-11-23T01:09:13.703Z,10.15
2022-11-23T01:11:40.942Z,10.18
2022-11-23T01:14:07.987Z,10.21
2022-11-23T01:16:38.649Z,10.12
2022-11-23T01:19:13.577Z,10.13
2022-11-23T01:21:40.703Z,10.17
2022-11-23T01:24:16.909Z,10.16
2022-11-23T01:26:44.529Z,10.15
2022-11-23T01:29:12.586Z,10.09
2022-11-23T01:31:46.254Z,10.16
2022-11-23T01:34:15.346Z,10.13
2022-11-23T01:36:42.919Z,10.18
2022-11-23T01:39:12.044Z,10.11
2022-11-23T01:41:42.311Z,10.22
2022-11-23T01:44:28.848Z,10.07
2022-11-23T01:47:00.220Z,10.08
2022-11-23T01:49:33.798Z,10.06
2022-11-23T01:52:13.060Z,10.24
2022-11-23T01:54:51.483Z,10.11
2022-11-23T01:57:37.833Z,10.08
2022-11-23T02:00:13.490Z,10.19
2022-11-23T02:02:51.881Z,10.28
2022-11-23T02:05:22.930Z,10.30
2022-11-23T02:07:51.382Z,10.29
2022-11-23T02:10:19.630Z,10.29
2022-11-23T02:12:46.635Z,10.29
2022-11-23T02:15:13.870Z,10.27
2022-11-23T02:17:41.938Z,10.29
2022-11-23T02:20:13.404Z,10.07
2022-11-23T02:22:51.910Z,10.05
2022-11-23T02:26:03.216Z,10.14
2022-11-23T02:28:47.117Z,10.22
2022-11-23T02:31:14.152Z,10.11
2022-11-23T02:33:41.666Z,10.02
2022-11-23T02:36:54.912Z,9.99
2022-11-23T02:39:50.993Z,9.99
2022-11-23T02:42:18.777Z,9.97
2022-11-23T02:45:22.445Z,10.16
2022-11-23T02:47:49.389Z,10.02
2022-11-23T02:50:16.779Z,9.99
2022-11-23T02:52:43.745Z,10.15
2022-11-23T02:55:11.070Z,10.03
2022-11-23T02:57:38.069Z,10.02
2022-11-23T03:00:06.294Z,10.18
2022-11-23T03:02:33.466Z,10.22
2022-11-23T03:05:00.551Z,10.23
2022-11-23T03:07:27.529Z,10.23
2022-11-23T03:09:54.619Z,10.04
2022-11-23T03:12:21.666Z,10.12
2022-11-23T03:14:48.709Z,10.10
2022-11-23T03:17:15.819Z,10.00
2022-11-23T03:19:42.858Z,10.09
2022-11-23T03:22:09.865Z,10.19
2022-11-23T03:24:41.849Z,10.21
2022-11-23T03:27:08.915Z,10.05
2022-11-23T03:29:35.870Z,10.09
2022-11-23T03:32:02.984Z,10.04
2022-11-23T03:34:30.040Z,10.24
2022-11-23T03:36:57.094Z,10.26
2022-11-23T03:39:24.195Z,10.07
2022-11-23T03:41:51.549Z,10.07
2022-11-23T03:44:18.700Z,10.21
2022-11-23T03:46:45.862Z,10.23
2022-11-23T03:49:12.941Z,10.27
2022-11-23T03:51:39.959Z,10.28
2022-11-23T03:54:07.016Z,10.20
2022-11-23T03:56:34.251Z,10.09
2022-11-23T03:59:01.332Z,10.07
2022-11-23T04:01:34.266Z,10.09
2022-11-23T04:04:01.426Z,10.05
2022-11-23T04:06:28.453Z,10.04
2022-11-23T04:09:01.502Z,10.01
2022-11-23T04:11:29.218Z,10.03
2022-11-23T04:13:56.141Z,10.10
2022-11-23T04:16:23.456Z,10.11
2022-11-23T04:18:50.425Z,10.12
2022-11-23T04:21:17.375Z,10.13
2022-11-23T04:23:44.346Z,10.14
2022-11-23T04:26:11.400Z,10.14
2022-11-23T04:28:38.370Z,10.06
2022-11-23T04:31:05.605Z,10.02
2022-11-23T04:33:32.661Z,10.00
2022-11-23T04:35:59.918Z,10.02
2022-11-23T04:38:26.987Z,10.01
2022-11-23T04:40:54.133Z,10.00
2022-11-23T04:43:21.245Z,9.95
2022-11-23T04:45:48.298Z,9.93
2022-11-23T04:48:15.316Z,9.88
2022-11-23T04:50:45.617Z,9.82
2022-11-23T04:53:13.839Z,9.74
2022-11-23T04:55:41.027Z,9.66
2022-11-23T04:58:07.978Z,9.59
2022-11-23T05:00:35.144Z,9.52
2022-11-23T05:03:02.354Z,9.46
2022-11-23T05:05:30.776Z,9.39
2022-11-23T05:07:59.079Z,9.35
2022-11-23T05:10:26.251Z,9.32
2022-11-23T05:12:53.453Z,9.30
2022-11-23T05:15:20.391Z,9.29
2022-11-23T05:17:47.476Z,9.32
2022-11-23T05:20:14.637Z,9.35
2022-11-23T05:22:41.793Z,9.40
2022-11-23T05:25:09.182Z,9.45
2022-11-23T05:27:36.558Z,9.46
2022-11-23T05:30:04.604Z,9.49
2022-11-23T05:32:31.594Z,9.53
2022-11-23T05:34:58.559Z,9.57
2022-11-23T05:37:25.525Z,9.58
2022-11-23T05:39:52.456Z,9.52
2022-11-23T05:42:19.466Z,9.56
2022-11-23T05:44:46.445Z,9.57
2022-11-23T05:47:13.478Z,9.59
2022-11-23T05:49:40.806Z,9.62
2022-11-23T05:52:07.842Z,9.63
2022-11-23T05:54:34.998Z,9.57
2022-11-23T05:57:02.066Z,9.64
2022-11-23T05:59:29.090Z,9.61
2022-11-23T06:01:56.069Z,9.59
2022-11-23T06:04:23.467Z,9.65
2022-11-23T06:06:50.541Z,9.58
2022-11-23T06:09:17.818Z,9.68
2022-11-23T06:11:44.914Z,9.68
2022-11-23T06:14:14.415Z,9.67
2022-11-23T06:16:41.727Z,9.64
2022-11-23T06:19:08.768Z,9.64
2022-11-23T06:21:35.944Z,9.61
2022-11-23T06:24:03.054Z,9.44
2022-11-23T06:26:30.410Z,9.54
2022-11-23T06:28:58.360Z,9.42
2022-11-23T06:31:25.363Z,9.41
2022-11-23T06:33:52.920Z,9.41
2022-11-23T06:36:19.937Z,9.54
2022-11-23T06:38:46.918Z,9.56
2022-11-23T06:41:13.982Z,9.54
2022-11-23T06:43:40.920Z,9.53
2022-11-23T06:46:07.993Z,9.50
2022-11-23T06:48:35.110Z,9.45
2022-11-23T06:51:02.060Z,9.42
2022-11-23T06:53:30.167Z,9.39
2022-11-23T06:56:01.150Z,9.34
2022-11-23T06:58:29.046Z,9.25
2022-11-23T07:01:02.195Z,9.20
2022-11-23T07:03:29.666Z,9.15
2022-11-23T07:05:56.913Z,9.11
2022-11-23T07:08:25.421Z,9.03
2022-11-23T07:10:52.681Z,8.99
2022-11-23T07:13:19.674Z,8.95
2022-11-23T07:15:46.649Z,8.92
2022-11-23T07:18:15.214Z,8.89
2022-11-23T07:20:42.178Z,8.89
2022-11-23T07:23:11.498Z,8.90
2022-11-23T07:25:39.152Z,8.88
2022-11-23T07:28:08.236Z,8.83
2022-11-23T07:30:36.344Z,8.87
2022-11-23T07:33:08.326Z,8.87
2022-11-23T07:35:37.480Z,8.83
2022-11-23T07:38:07.914Z,8.77
2022-11-23T07:40:37.626Z,8.81
2022-11-23T07:43:06.741Z,8.84
2022-11-23T07:45:35.060Z,8.86
2022-11-23T07:48:08.742Z,8.84
2022-11-23T07:50:37.812Z,8.84
2022-11-23T07:53:06.754Z,8.90
2022-11-23T07:55:34.065Z,8.91
2022-11-23T07:58:01.111Z,8.92
2022-11-23T08:00:29.079Z,8.94
2022-11-23T08:03:26.075Z,8.97
2022-11-23T08:05:46.215Z,8.99
2022-11-23T08:08:13.296Z,8.99
2022-11-23T08:10:46.108Z,9.05
2022-11-23T08:13:15.579Z,9.07
2022-11-23T08:15:42.605Z,9.12
2022-11-23T08:18:10.185Z,9.19
2022-11-23T08:20:37.132Z,9.23
2022-11-23T08:23:04.156Z,9.30
2022-11-23T08:25:31.354Z,9.36
2022-11-23T08:28:01.673Z,9.40
2022-11-23T08:30:30.958Z,9.46
2022-11-23T08:32:58.588Z,9.55
2022-11-23T08:35:25.803Z,9.58
2022-11-23T08:37:52.767Z,9.65
2022-11-23T08:40:24.970Z,9.67
2022-11-23T08:42:52.506Z,9.73
2022-11-23T08:45:19.471Z,9.77
2022-11-23T08:47:46.741Z,9.80
2022-11-23T08:50:14.259Z,9.86
2022-11-23T08:52:41.238Z,9.89
2022-11-23T08:55:08.772Z,9.91
2022-11-23T08:57:35.859Z,9.97
2022-11-23T09:00:05.586Z,9.99
2022-11-23T09:02:32.923Z,10.01
2022-11-23T09:05:00.803Z,9.92
2022-11-23T09:07:27.873Z,9.91
2022-11-23T09:09:54.889Z,9.96
2022-11-23T09:12:21.818Z,10.11
2022-11-23T09:14:48.749Z,10.02
2022-11-23T09:17:15.770Z,10.06
2022-11-23T09:19:42.716Z,10.07
2022-11-23T09:22:09.744Z,10.06
2022-11-23T09:24:37.189Z,10.23
2022-11-23T09:27:04.554Z,10.30
2022-11-23T09:29:31.514Z,10.21
2022-11-23T09:31:58.547Z,10.34
2022-11-23T09:34:25.567Z,10.37
2022-11-23T09:36:52.539Z,10.25
2022-11-23T09:39:19.559Z,10.23
2022-11-23T09:42:10.671Z,10.36
2022-11-23T09:45:12.329Z,10.43
2022-11-23T09:48:06.820Z,10.46
2022-11-23T09:50:56.527Z,10.47
2022-11-23T09:53:34.249Z,10.48
2022-11-23T09:56:02.229Z,10.49
2022-11-23T09:58:39.819Z,10.45
2022-11-23T10:01:14.264Z,10.55
2022-11-23T10:03:48.852Z,10.58
2022-11-23T10:06:29.486Z,10.58
2022-11-23T10:09:41.174Z,10.61
2022-11-23T10:12:41.739Z,10.51
2022-11-23T10:15:38.495Z,10.47
2022-11-23T10:18:38.943Z,10.68
2022-11-23T10:21:33.322Z,10.73
2022-11-23T10:24:25.175Z,10.79
2022-11-23T10:26:52.133Z,10.81
2022-11-23T10:29:39.182Z,10.87
2022-11-23T10:32:20.356Z,10.87
2022-11-23T10:35:15.090Z,10.95
2022-11-23T10:37:42.967Z,10.94
2022-11-23T10:40:25.798Z,10.99
2022-11-23T10:42:59.499Z,10.92
2022-11-23T10:45:29.257Z,10.94
2022-11-23T10:47:59.539Z,11.10
2022-11-23T10:50:33.828Z,11.21
2022-11-23T10:53:26.251Z,11.33
2022-11-23T10:55:59.290Z,11.48
2022-11-23T10:58:35.169Z,11.51
2022-11-23T11:01:07.590Z,11.50
2022-11-23T11:03:35.798Z,11.44
2022-11-23T11:06:09.090Z,11.51
2022-11-23T11:08:53.697Z,11.61
2022-11-23T11:11:29.752Z,11.61
2022-11-23T11:14:18.721Z,11.69
2022-11-23T11:17:00.598Z,11.77
2022-11-23T11:19:30.296Z,11.88
2022-11-23T11:21:59.932Z,12.06
2022-11-23T11:24:47.174Z,12.28
2022-11-23T11:27:21.101Z,12.37
2022-11-23T11:29:54.652Z,12.44
2022-11-23T11:32:38.311Z,12.41
2022-11-23T11:35:21.144Z,12.39
2022-11-23T11:37:52.250Z,12.38
2022-11-23T11:40:39.560Z,12.38
2022-11-23T11:43:22.851Z,12.17
2022-11-23T11:46:27.489Z,12.11
2022-11-23T11:48:57.492Z,12.09
2022-11-23T11:51:36.917Z,12.12
2022-11-23T11:54:36.206Z,12.29
2022-11-23T11:57:21.814Z,12.42
2022-11-23T11:59:53.429Z,12.28
2022-11-23T12:02:57.010Z,12.28
2022-11-23T12:05:44.625Z,12.32
2022-11-23T12:08:18.657Z,12.35
2022-11-23T12:10:58.132Z,12.49
2022-11-23T12:13:38.581Z,12.63
2022-11-23T12:16:23.554Z,12.59
2022-11-23T12:19:27.051Z,12.59
2022-11-23T12:22:21.678Z,12.57
2022-11-23T12:25:38.325Z,12.51
2022-11-23T12:28:22.817Z,12.44
2022-11-23T12:31:26.403Z,12.39
2022-11-23T12:34:33.059Z,12.35
2022-11-23T12:37:14.900Z,12.35
2022-11-23T12:40:07.426Z,12.22
2022-11-23T12:42:53.867Z,12.42
2022-11-23T12:46:10.615Z,12.56
2022-11-23T12:49:28.690Z,12.57
2022-11-23T12:52:34.395Z,12.56
2022-11-23T12:55:20.101Z,12.59
2022-11-23T12:58:05.770Z,12.65
2022-11-23T13:00:41.946Z,12.71
2022-11-23T13:03:39.477Z,12.76
2022-11-23T13:06:30.125Z,12.75
2022-11-23T13:09:32.196Z,12.72
2022-11-23T13:12:33.672Z,12.64
2022-11-23T13:15:12.712Z,12.57
2022-11-23T13:18:20.064Z,12.44
2022-11-23T13:20:57.518Z,12.25
2022-11-23T13:23:24.911Z,12.21
2022-11-23T13:26:14.216Z,12.18
2022-11-23T13:28:42.368Z,12.27
2022-11-23T13:31:30.385Z,12.19
2022-11-23T13:34:03.945Z,12.24
2022-11-23T13:36:56.548Z,12.26
2022-11-23T13:39:51.445Z,12.29
2022-11-23T13:42:19.613Z,12.24
2022-11-23T13:44:46.662Z,12.21
2022-11-23T13:47:15.201Z,12.25
2022-11-23T13:49:52.052Z,12.09
2022-11-23T13:52:22.350Z,11.93
2022-11-23T13:55:09.352Z,11.73
2022-11-23T13:57:42.998Z,11.54
2022-11-23T14:00:50.051Z,11.35
2022-11-23T14:03:53.950Z,11.21
2022-11-23T14:06:39.233Z,11.10
2022-11-23T14:09:33.448Z,11.02
2022-11-23T14:12:12.655Z,10.93
2022-11-23T14:14:49.528Z,10.82
2022-11-23T14:17:43.998Z,10.73
2022-11-23T14:20:38.593Z,10.60
2022-11-23T14:23:45.539Z,10.47
2022-11-23T14:26:49.124Z,10.39
2022-11-23T14:29:49.256Z,10.33
2022-11-23T14:32:22.410Z,10.26
2022-11-23T14:35:12.366Z,10.22
2022-11-23T14:38:22.152Z,10.18
2022-11-23T14:41:18.458Z,10.15
2022-11-23T14:43:47.341Z,10.10
2022-11-23T14:46:22.583Z,10.08
2022-11-23T14:48:50.126Z,10.07
2022-11-23T14:51:23.171Z,10.03
2022-11-23T14:54:01.648Z,10.01
2022-11-23T14:56:47.453Z,10.02
2022-11-23T14:59:17.140Z,9.99
2022-11-23T15:02:14.542Z,9.95
2022-11-23T15:05:06.837Z,9.90
2022-11-23T15:07:46.752Z,9.89
2022-11-23T15:11:05.018Z,9.88
2022-11-23T15:13:46.481Z,9.83
2022-11-23T15:16:16.347Z,9.83
2022-11-23T15:18:44.353Z,9.81
2022-11-23T15:21:11.238Z,9.80
2022-11-23T15:23:50.692Z,9.79
2022-11-23T15:26:42.363Z,9.78
2022-11-23T15:29:38.632Z,9.75
2022-11-23T15:32:32.164Z,9.73
2022-11-23T15:35:07.099Z,9.71
2022-11-23T15:37:46.127Z,9.71
2022-11-23T15:40:19.079Z,9.70
2022-11-23T15:42:50.108Z,9.69
2022-11-23T15:45:41.673Z,9.63
2022-11-23T15:48:37.188Z,9.58
2022-11-23T15:51:09.363Z,9.57
2022-11-23T15:53:59.324Z,9.54
2022-11-23T15:56:38.766Z,9.53
2022-11-23T15:59:43.897Z,9.53
2022-11-23T16:02:25.924Z,9.51
2022-11-23T16:05:22.394Z,9.51
2022-11-23T16:08:02.278Z,9.53
2022-11-23T16:10:35.005Z,9.50
2022-11-23T16:13:07.135Z,9.49
2022-11-23T16:15:46.366Z,9.48
2022-11-23T16:18:13.250Z,9.47
2022-11-23T16:20:51.262Z,9.47
2022-11-23T16:23:26.900Z,9.41
2022-11-23T16:26:03.290Z,9.42
2022-11-23T16:28:36.991Z,9.46
2022-11-23T16:31:04.689Z,9.53
2022-11-23T16:33:31.822Z,9.52
2022-11-23T16:35:58.902Z,9.54
2022-11-23T16:38:25.991Z,9.58
2022-11-23T16:40:53.060Z,9.57
2022-11-23T16:43:34.527Z,9.48
2022-11-23T16:46:07.408Z,9.54
2022-11-23T16:48:42.642Z,9.52
2022-11-23T16:51:14.511Z,9.54
2022-11-23T16:56:32.898Z,9.49
2022-11-23T16:59:00.409Z,9.62
2022-11-23T17:01:30.122Z,9.64
2022-11-23T17:03:57.286Z,9.63
2022-11-23T17:06:24.471Z,9.62
2022-11-23T17:09:00.560Z,9.54
2022-11-23T17:11:35.205Z,9.56
2022-11-23T17:14:02.322Z,9.56
2022-11-23T17:16:30.940Z,9.58
2022-11-23T17:18:57.904Z,9.57
2022-11-23T17:21:24.898Z,9.53
2022-11-23T17:23:52.168Z,9.51
2022-11-23T17:26:36.243Z,9.38
2022-11-23T17:29:12.719Z,9.42
2022-11-23T17:31:40.425Z,9.51
2022-11-23T17:34:08.762Z,9.49
2022-11-23T17:36:35.882Z,9.48
2022-11-23T17:39:02.946Z,9.47
2022-11-23T17:41:29.941Z,9.44
2022-11-23T17:43:59.352Z,9.41
2022-11-23T17:46:31.454Z,9.39
2022-11-23T17:49:01.836Z,9.33
2022-11-23T17:51:29.303Z,9.31
2022-11-23T17:53:56.273Z,9.30
2022-11-23T17:56:25.851Z,9.26
2022-11-23T17:58:52.970Z,9.23
2022-11-23T18:01:22.290Z,9.20
2022-11-23T18:03:49.932Z,9.16
2022-11-23T18:06:24.097Z,9.13
2022-11-23T18:08:52.414Z,9.09
2022-11-23T18:11:20.858Z,9.07
2022-11-23T18:13:50.314Z,9.01
2022-11-23T18:16:22.912Z,8.96
2022-11-23T18:18:51.101Z,8.94
2022-11-23T18:21:18.456Z,8.90
2022-11-23T18:23:45.624Z,8.87
2022-11-23T18:26:22.661Z,8.84
2022-11-23T18:28:50.283Z,8.81
2022-11-23T18:31:18.136Z,8.77
2022-11-23T18:33:45.907Z,8.72
2022-11-23T18:36:13.610Z,8.70
2022-11-23T18:38:43.478Z,8.67
2022-11-23T18:41:10.956Z,8.65
2022-11-23T18:43:38.327Z,8.63
2022-11-23T18:46:08.179Z,8.61
2022-11-23T18:48:35.559Z,8.60
2022-11-23T18:51:04.472Z,8.58
2022-11-23T18:53:33.218Z,8.55
2022-11-23T18:56:04.954Z,8.55
2022-11-23T18:58:42.024Z,8.51
2022-11-23T19:01:21.551Z,8.51
2022-11-23T19:03:51.829Z,8.51
2022-11-23T19:06:22.201Z,8.50
2022-11-23T19:08:53.794Z,8.48
2022-11-23T19:11:24.166Z,8.48
2022-11-23T19:13:54.553Z,8.48
2022-11-23T19:16:25.013Z,8.46
2022-11-23T19:19:03.833Z,8.45
2022-11-23T19:21:34.379Z,8.45
2022-11-23T19:24:02.410Z,8.45
2022-11-23T19:26:30.652Z,8.50
2022-11-23T19:28:59.562Z,8.54
2022-11-23T19:31:31.714Z,8.57
2022-11-23T19:34:06.036Z,8.61
2022-11-23T19:36:38.250Z,8.64
2022-11-23T19:39:06.611Z,8.68
2022-11-23T19:41:33.701Z,8.71
2022-11-23T19:44:01.975Z,8.74
2022-11-23T19:46:31.139Z,8.78
2022-11-23T19:48:59.141Z,8.83
2022-11-23T19:51:28.053Z,8.85
2022-11-23T19:54:01.052Z,8.86
2022-11-23T19:56:29.414Z,8.83
2022-11-23T19:59:01.273Z,8.78
2022-11-23T20:01:34.255Z,8.73
2022-11-23T20:04:09.192Z,8.73
2022-11-23T20:06:43.442Z,8.73
2022-11-23T20:09:16.946Z,8.70
2022-11-23T20:11:49.287Z,8.70
2022-11-23T20:14:17.809Z,8.68
2022-11-23T20:16:44.889Z,8.69
2022-11-23T20:19:11.995Z,8.69
2022-11-23T20:21:39.310Z,8.65
2022-11-23T20:24:13.444Z,8.66
2022-11-23T20:26:41.956Z,8.62
2022-11-23T20:29:09.710Z,8.59
2022-11-23T20:31:37.564Z,8.56
2022-11-23T20:34:07.372Z,8.52
2022-11-23T20:36:37.423Z,8.53
2022-11-23T20:39:08.097Z,8.50
2022-11-23T20:41:37.226Z,8.50
2022-11-23T20:44:13.444Z,8.53
2022-11-23T20:49:30.004Z,8.54
2022-11-23T20:51:57.574Z,8.54
2022-11-23T20:54:24.541Z,8.54
2022-11-23T20:56:51.512Z,8.46
2022-11-23T20:59:19.753Z,8.43
2022-11-23T21:01:46.942Z,8.43
2022-11-23T21:04:14.034Z,8.44
2022-11-23T21:06:41.010Z,8.58
2022-11-23T21:09:09.777Z,8.50
2022-11-23T21:11:55.815Z,8.62
2022-11-23T21:14:28.250Z,8.67
2022-11-23T21:16:59.487Z,8.57
2022-11-23T21:19:35.996Z,8.70
2022-11-23T21:22:14.644Z,8.63
2022-11-23T21:24:41.763Z,8.61
2022-11-23T21:27:13.421Z,8.59
2022-11-23T21:29:40.788Z,8.62
2022-11-23T21:32:07.970Z,8.63
2022-11-23T21:34:35.546Z,8.71
2022-11-23T21:37:02.796Z,8.74
2022-11-23T21:39:33.181Z,8.76
2022-11-23T21:42:00.443Z,8.66
2022-11-23T21:44:27.503Z,8.66
2022-11-23T21:46:54.648Z,8.68
2022-11-23T21:49:21.871Z,8.66
2022-11-23T21:51:49.259Z,8.65
2022-11-23T21:54:16.562Z,8.76
2022-11-23T21:56:46.112Z,8.81
2022-11-23T21:59:13.647Z,8.85
2022-11-23T22:01:41.991Z,8.86
2022-11-23T22:04:12.775Z,8.87
2022-11-23T22:06:42.242Z,8.88
2022-11-23T22:09:11.578Z,8.88
2022-11-23T22:11:41.638Z,8.88
2022-11-23T22:14:12.226Z,8.72
2022-11-23T22:16:50.309Z,8.82
2022-11-23T22:19:18.752Z,8.89
2022-11-23T22:21:46.818Z,8.91
2022-11-23T22:24:17.054Z,8.91
2022-11-23T22:26:45.484Z,8.79
2022-11-23T22:29:13.094Z,8.73
2022-11-23T22:31:40.742Z,8.89
2022-11-23T22:34:11.835Z,8.76
2022-11-23T22:36:39.296Z,8.71
2022-11-23T22:39:07.713Z,8.78
2022-11-23T22:41:37.220Z,8.70
2022-11-23T22:44:07.084Z,8.70
2022-11-23T22:54:37.243Z,8.87
2022-11-23T22:57:04.846Z,8.86
2022-11-23T22:59:31.841Z,8.88
2022-11-23T23:01:58.958Z,8.80
2022-11-23T23:04:26.201Z,8.78
2022-11-23T23:06:53.113Z,8.68
2022-11-23T23:09:20.093Z,8.70
2022-11-23T23:11:47.048Z,8.66
2022-11-23T23:14:14.006Z,8.67
2022-11-23T23:16:41.167Z,8.63
2022-11-23T23:19:08.225Z,8.62
2022-11-23T23:21:35.244Z,8.64
2022-11-23T23:24:02.251Z,8.69
2022-11-23T23:26:29.994Z,8.75
2022-11-23T23:28:59.692Z,8.76
2022-11-23T23:31:28.133Z,8.75
2022-11-23T23:33:55.510Z,8.74
2022-11-23T23:36:23.884Z,8.60
2022-11-23T23:38:51.355Z,8.72
2022-11-23T23:41:19.122Z,8.72
2022-11-23T23:43:48.231Z,8.72
2022-11-23T23:46:16.176Z,8.57
2022-11-23T23:48:43.968Z,8.51
2022-11-23T23:51:13.758Z,8.50
2022-11-23T23:53:41.870Z,8.66
2022-11-23T23:56:22.762Z,8.67
2022-11-23T23:58:49.860Z,8.70
